createdAt,value
2023-04-26T00:00:04.269Z,130.45
2023-04-26T00:01:04.293Z,130.75
2023-04-26T00:02:05.306Z,131.41
2023-04-26T00:03:05.432Z,127.81
2023-04-26T00:04:04.601Z,126.61
2023-04-26T00:05:05.598Z,130.82
2023-04-26T00:06:04.365Z,129.62
2023-04-26T00:07:04.377Z,132.17
2023-04-26T00:08:05.414Z,130.95
2023-04-26T00:09:04.424Z,131.80
2023-04-26T00:10:05.459Z,129.00
2023-04-26T00:11:05.488Z,129.83
2023-04-26T00:12:05.490Z,133.11
2023-04-26T00:13:05.533Z,131.70
2023-04-26T00:14:05.574Z,131.15
2023-04-26T00:15:04.689Z,129.22
2023-04-26T00:16:05.694Z,128.71
2023-04-26T00:17:05.627Z,132.88
2023-04-26T00:18:04.700Z,129.64
2023-04-26T00:19:05.679Z,132.15
2023-04-26T00:20:05.718Z,130.45
2023-04-26T00:21:05.736Z,131.37
2023-04-26T00:22:05.761Z,130.55
2023-04-26T00:23:05.772Z,130.02
2023-04-26T00:24:05.808Z,128.06
2023-04-26T00:25:05.847Z,129.19
2023-04-26T00:26:05.894Z,127.21
2023-04-26T00:27:05.885Z,127.55
2023-04-26T00:28:05.906Z,126.42
2023-04-26T00:29:05.918Z,127.64
2023-04-26T00:30:05.976Z,130.98
2023-04-26T00:31:05.960Z,127.74
2023-04-26T00:32:06.095Z,130.88
2023-04-26T00:33:05.102Z,129.95
2023-04-26T00:34:06.030Z,130.59
2023-04-26T00:35:06.058Z,128.92
2023-04-26T00:36:05.094Z,131.42
2023-04-26T00:37:06.200Z,130.14
2023-04-26T00:38:06.526Z,128.27
2023-04-26T00:39:06.179Z,130.46
2023-04-26T00:40:06.193Z,132.08
2023-04-26T00:41:06.253Z,128.63
2023-04-26T00:42:05.248Z,134.20
2023-04-26T00:43:05.281Z,129.49
2023-04-26T00:44:05.301Z,129.88
2023-04-26T00:45:05.331Z,130.04
2023-04-26T00:46:05.425Z,129.23
2023-04-26T00:47:06.382Z,127.86
2023-04-26T00:48:05.447Z,131.48
2023-04-26T00:49:05.433Z,131.18
2023-04-26T00:50:06.465Z,128.52
2023-04-26T00:51:05.526Z,128.54
2023-04-26T00:52:06.520Z,130.13
2023-04-26T00:53:06.549Z,130.66
2023-04-26T00:54:05.586Z,127.18
2023-04-26T00:55:06.601Z,129.80
2023-04-26T00:56:06.775Z,130.16
2023-04-26T00:57:06.694Z,132.37
2023-04-26T00:58:05.700Z,129.49
2023-04-26T00:59:05.708Z,130.06
2023-04-26T01:00:06.733Z,128.45
2023-04-26T01:01:06.844Z,130.07
2023-04-26T01:02:05.840Z,127.96
2023-04-26T01:03:05.957Z,130.24
2023-04-26T01:04:06.992Z,128.68
2023-04-26T01:05:06.954Z,130.84
2023-04-26T01:06:05.851Z,128.21
2023-04-26T01:07:06.895Z,130.66
2023-04-26T01:08:05.934Z,126.18
2023-04-26T01:09:06.929Z,127.85
2023-04-26T01:10:07.493Z,125.07
2023-04-26T01:11:06.003Z,128.25
2023-04-26T01:12:07.032Z,130.08
2023-04-26T01:13:06.046Z,128.61
2023-04-26T01:14:06.122Z,128.74
2023-04-26T01:15:06.107Z,130.09
2023-04-26T01:16:07.134Z,126.22
2023-04-26T01:17:06.305Z,128.10
2023-04-26T01:18:06.265Z,127.98
2023-04-26T01:19:07.252Z,127.28
2023-04-26T01:20:06.308Z,130.00
2023-04-26T01:21:07.379Z,129.84
2023-04-26T01:22:07.381Z,127.15
2023-04-26T01:23:07.510Z,127.15
2023-04-26T01:24:07.451Z,128.61
2023-04-26T01:25:06.472Z,126.68
2023-04-26T01:26:07.866Z,129.14
2023-04-26T01:27:06.533Z,128.69
2023-04-26T01:28:07.559Z,130.37
2023-04-26T01:29:06.599Z,127.17
2023-04-26T01:30:06.644Z,125.06
2023-04-26T01:31:07.734Z,129.35
2023-04-26T01:32:06.700Z,123.58
2023-04-26T01:33:07.769Z,130.52
2023-04-26T01:34:07.796Z,124.32
2023-04-26T01:35:06.791Z,130.25
2023-04-26T01:36:06.837Z,127.96
2023-04-26T01:37:07.940Z,130.25
2023-04-26T01:38:06.918Z,128.21
2023-04-26T01:39:07.942Z,125.56
2023-04-26T01:40:08.008Z,125.57
2023-04-26T01:41:07.003Z,127.25
2023-04-26T01:42:07.046Z,127.00
2023-04-26T01:43:07.082Z,124.64
2023-04-26T01:44:08.102Z,127.58
2023-04-26T01:45:08.156Z,127.26
2023-04-26T01:46:07.204Z,125.84
2023-04-26T01:47:08.214Z,130.36
2023-04-26T01:48:08.345Z,129.79
2023-04-26T01:49:08.282Z,127.21
2023-04-26T01:50:08.911Z,126.42
2023-04-26T01:51:07.327Z,125.14
2023-04-26T01:52:08.350Z,125.44
2023-04-26T01:53:07.435Z,130.00
2023-04-26T01:54:08.426Z,126.28
2023-04-26T01:55:08.461Z,127.53
2023-04-26T01:56:08.489Z,127.22
2023-04-26T01:57:08.521Z,125.46
2023-04-26T01:58:07.549Z,125.97
2023-04-26T01:59:07.604Z,129.41
2023-04-26T02:00:07.645Z,129.07
2023-04-26T02:01:08.701Z,128.79
2023-04-26T02:02:08.733Z,127.00
2023-04-26T02:03:07.868Z,123.03
2023-04-26T02:04:08.762Z,127.65
2023-04-26T02:05:08.828Z,126.62
2023-04-26T02:06:08.863Z,123.15
2023-04-26T02:07:07.895Z,125.65
2023-04-26T02:08:08.898Z,125.37
2023-04-26T02:09:07.916Z,125.15
2023-04-26T02:10:08.946Z,126.61
2023-04-26T02:11:08.011Z,124.64
2023-04-26T02:12:09.020Z,129.06
2023-04-26T02:13:09.057Z,125.40
2023-04-26T02:14:09.074Z,128.50
2023-04-26T02:15:08.109Z,125.55
2023-04-26T02:16:08.173Z,126.12
2023-04-26T02:17:08.190Z,123.76
2023-04-26T02:18:08.261Z,124.67
2023-04-26T02:19:09.293Z,125.73
2023-04-26T02:20:09.306Z,124.22
2023-04-26T02:21:08.317Z,127.22
2023-04-26T02:22:09.381Z,126.43
2023-04-26T02:23:09.435Z,126.39
2023-04-26T02:24:08.428Z,125.24
2023-04-26T02:25:09.460Z,127.99
2023-04-26T02:26:09.487Z,127.03
2023-04-26T02:27:08.544Z,125.88
2023-04-26T02:28:09.578Z,126.98
2023-04-26T02:29:09.595Z,125.72
2023-04-26T02:30:09.622Z,126.74
2023-04-26T02:31:08.719Z,130.02
2023-04-26T02:32:09.700Z,127.07
2023-04-26T02:33:09.757Z,124.34
2023-04-26T02:34:08.763Z,126.61
2023-04-26T02:35:09.808Z,127.57
2023-04-26T02:36:09.856Z,124.15
2023-04-26T02:37:09.883Z,123.81
2023-04-26T02:38:09.954Z,129.78
2023-04-26T02:39:09.998Z,126.47
2023-04-26T02:40:09.972Z,128.27
2023-04-26T02:41:10.028Z,128.73
2023-04-26T02:42:09.556Z,128.47
2023-04-26T02:43:10.104Z,127.47
2023-04-26T02:44:10.128Z,125.32
2023-04-26T02:45:10.160Z,123.76
2023-04-26T02:46:09.255Z,127.54
2023-04-26T02:47:10.431Z,128.28
2023-04-26T02:48:09.355Z,125.91
2023-04-26T02:49:10.332Z,128.28
2023-04-26T02:50:10.389Z,129.85
2023-04-26T02:51:10.428Z,128.05
2023-04-26T02:52:10.460Z,127.21
2023-04-26T02:53:09.522Z,123.06
2023-04-26T02:54:10.602Z,129.31
2023-04-26T02:55:10.600Z,128.32
2023-04-26T02:56:10.663Z,127.67
2023-04-26T02:57:10.700Z,126.16
2023-04-26T02:58:10.775Z,127.26
2023-04-26T02:59:10.800Z,126.06
2023-04-26T03:00:10.850Z,125.67
2023-04-26T03:01:10.894Z,125.37
2023-04-26T03:02:09.954Z,125.88
2023-04-26T03:03:10.064Z,128.12
2023-04-26T03:04:10.160Z,123.03
2023-04-26T03:05:11.060Z,123.55
2023-04-26T03:06:10.098Z,124.31
2023-04-26T03:07:10.146Z,125.61
2023-04-26T03:08:11.182Z,126.13
2023-04-26T03:09:11.261Z,127.59
2023-04-26T03:10:11.299Z,124.78
2023-04-26T03:11:10.321Z,125.72
2023-04-26T03:12:11.360Z,125.77
2023-04-26T03:13:11.400Z,125.08
2023-04-26T03:14:11.467Z,122.93
2023-04-26T03:15:10.502Z,122.69
2023-04-26T03:16:10.546Z,124.71
2023-04-26T03:17:11.586Z,126.34
2023-04-26T03:18:11.691Z,125.27
2023-04-26T03:19:10.660Z,126.20
2023-04-26T03:20:10.720Z,125.02
2023-04-26T03:21:11.763Z,124.02
2023-04-26T03:22:11.807Z,126.74
2023-04-26T03:23:11.825Z,123.07
2023-04-26T03:24:11.895Z,124.33
2023-04-26T03:25:10.913Z,120.23
2023-04-26T03:26:11.967Z,125.31
2023-04-26T03:27:11.987Z,124.56
2023-04-26T03:28:12.029Z,125.65
2023-04-26T03:29:11.063Z,125.76
2023-04-26T03:30:12.105Z,121.91
2023-04-26T03:31:12.187Z,124.78
2023-04-26T03:32:12.285Z,121.77
2023-04-26T03:33:12.270Z,123.27
2023-04-26T03:34:12.225Z,120.47
2023-04-26T03:35:12.247Z,124.66
2023-04-26T03:36:11.244Z,127.83
2023-04-26T03:37:12.247Z,122.86
2023-04-26T03:38:11.235Z,120.71
2023-04-26T03:39:12.237Z,121.59
2023-04-26T03:40:12.230Z,128.61
2023-04-26T03:41:12.226Z,125.31
2023-04-26T03:42:12.315Z,123.71
2023-04-26T03:43:12.233Z,124.72
2023-04-26T03:44:11.263Z,124.07
2023-04-26T03:45:12.328Z,124.01
2023-04-26T03:46:12.408Z,124.02
2023-04-26T03:47:11.434Z,123.25
2023-04-26T03:48:12.564Z,123.25
2023-04-26T03:49:11.552Z,123.86
2023-04-26T03:50:11.598Z,122.94
2023-04-26T03:51:11.671Z,123.49
2023-04-26T03:52:12.736Z,123.18
2023-04-26T03:53:12.830Z,124.69
2023-04-26T03:54:12.863Z,124.82
2023-04-26T03:55:12.920Z,121.81
2023-04-26T03:56:12.970Z,122.57
2023-04-26T03:57:12.030Z,125.57
2023-04-26T03:58:13.111Z,123.56
2023-04-26T03:59:12.154Z,120.29
2023-04-26T04:00:12.230Z,126.21
2023-04-26T04:01:13.280Z,125.63
2023-04-26T04:02:13.430Z,126.44
2023-04-26T04:03:13.643Z,122.66
2023-04-26T04:04:12.741Z,124.35
2023-04-26T04:05:12.559Z,120.59
2023-04-26T04:06:13.545Z,123.87
2023-04-26T04:07:12.614Z,122.95
2023-04-26T04:08:12.667Z,125.05
2023-04-26T04:09:13.718Z,121.23
2023-04-26T04:10:14.042Z,124.19
2023-04-26T04:11:12.862Z,121.55
2023-04-26T04:12:13.924Z,123.36
2023-04-26T04:13:13.124Z,120.38
2023-04-26T04:14:14.061Z,123.19
2023-04-26T04:15:14.097Z,123.64
2023-04-26T04:16:14.147Z,124.56
2023-04-26T04:17:13.229Z,124.81
2023-04-26T04:18:13.356Z,122.05
2023-04-26T04:19:14.320Z,122.95
2023-04-26T04:20:14.374Z,120.60
2023-04-26T04:21:14.422Z,124.31
2023-04-26T04:22:13.501Z,122.59
2023-04-26T04:23:14.540Z,121.19
2023-04-26T04:24:14.589Z,120.76
2023-04-26T04:25:14.688Z,122.10
2023-04-26T04:26:14.683Z,119.86
2023-04-26T04:27:13.748Z,121.46
2023-04-26T04:28:14.804Z,125.00
2023-04-26T04:29:13.839Z,121.26
2023-04-26T04:30:15.034Z,122.98
2023-04-26T04:31:14.956Z,120.23
2023-04-26T04:32:14.985Z,121.19
2023-04-26T04:33:14.029Z,122.14
2023-04-26T04:34:14.079Z,119.58
2023-04-26T04:35:15.130Z,122.99
2023-04-26T04:36:14.189Z,121.95
2023-04-26T04:37:14.249Z,121.84
2023-04-26T04:38:15.298Z,120.23
2023-04-26T04:39:14.324Z,121.51
2023-04-26T04:40:14.387Z,123.11
2023-04-26T04:41:14.480Z,119.25
2023-04-26T04:42:14.483Z,121.75
2023-04-26T04:43:15.542Z,122.23
2023-04-26T04:44:15.576Z,122.85
2023-04-26T04:45:15.624Z,122.37
2023-04-26T04:46:14.704Z,119.09
2023-04-26T04:47:15.708Z,116.73
2023-04-26T04:48:15.731Z,117.44
2023-04-26T04:49:15.803Z,120.46
2023-04-26T04:50:15.851Z,119.54
2023-04-26T04:51:15.858Z,117.33
2023-04-26T04:52:16.248Z,121.79
2023-04-26T04:53:16.073Z,118.12
2023-04-26T04:54:16.068Z,116.79
2023-04-26T04:55:16.123Z,118.95
2023-04-26T04:56:16.213Z,119.91
2023-04-26T04:57:16.198Z,115.91
2023-04-26T04:58:16.200Z,120.40
2023-04-26T04:59:16.232Z,118.37
2023-04-26T05:00:16.296Z,120.58
2023-04-26T05:01:15.325Z,118.24
2023-04-26T05:02:15.553Z,121.15
2023-04-26T05:03:15.504Z,116.48
2023-04-26T05:04:15.583Z,120.11
2023-04-26T05:05:15.513Z,118.14
2023-04-26T05:06:16.424Z,117.94
2023-04-26T05:07:15.498Z,120.09
2023-04-26T05:08:16.494Z,117.92
2023-04-26T05:09:15.514Z,121.00
2023-04-26T05:10:16.552Z,117.66
2023-04-26T05:11:15.579Z,119.37
2023-04-26T05:12:16.597Z,118.29
2023-04-26T05:13:16.660Z,119.43
2023-04-26T05:14:16.661Z,118.43
2023-04-26T05:15:15.733Z,117.77
2023-04-26T05:16:16.742Z,118.73
2023-04-26T05:17:16.782Z,121.29
2023-04-26T05:18:16.909Z,123.06
2023-04-26T05:19:16.810Z,122.23
2023-04-26T05:20:15.934Z,125.31
2023-04-26T05:21:15.901Z,124.90
2023-04-26T05:22:15.901Z,126.51
2023-04-26T05:23:15.921Z,126.39
2023-04-26T05:24:15.920Z,126.01
2023-04-26T05:25:15.993Z,124.12
2023-04-26T05:26:16.973Z,129.92
2023-04-26T05:27:17.009Z,127.05
2023-04-26T05:28:17.028Z,128.21
2023-04-26T05:29:17.015Z,128.99
2023-04-26T05:30:17.027Z,130.03
2023-04-26T05:31:17.072Z,132.53
2023-04-26T05:32:17.070Z,132.62
2023-04-26T05:33:17.169Z,133.94
2023-04-26T05:34:17.297Z,139.77
2023-04-26T05:35:17.677Z,143.51
2023-04-26T05:36:17.268Z,139.25
2023-04-26T05:37:17.416Z,117.18
2023-04-26T05:38:17.618Z,111.21
2023-04-26T05:39:17.429Z,121.81
2023-04-26T05:40:17.426Z,121.55
2023-04-26T05:41:16.438Z,110.17
2023-04-26T05:42:18.196Z,109.77
2023-04-26T05:43:17.574Z,122.41
2023-04-26T05:44:16.771Z,151.95
2023-04-26T05:45:17.995Z,158.80
2023-04-26T05:46:18.217Z,161.93
2023-04-26T05:47:18.691Z,167.88
2023-04-26T05:48:16.760Z,168.10
2023-04-26T05:49:18.166Z,168.30
2023-04-26T05:50:17.037Z,169.57
2023-04-26T05:51:19.758Z,170.94
2023-04-26T05:52:18.610Z,148.46
2023-04-26T05:53:18.297Z,96.25
2023-04-26T05:54:18.359Z,19.54
2023-04-26T05:55:19.153Z,13.24
2023-04-26T05:57:35.794Z,25.00
2023-04-26T05:58:36.733Z,25.00
2023-04-26T05:59:36.735Z,25.00
2023-04-26T06:00:36.705Z,25.00
2023-04-26T06:01:36.709Z,25.00
2023-04-26T06:02:35.887Z,32.79
2023-04-26T06:03:37.274Z,32.15
2023-04-26T06:04:36.838Z,25.00
2023-04-26T06:05:36.726Z,33.87
2023-04-26T06:06:36.670Z,43.87
2023-04-26T06:07:35.652Z,44.88
2023-04-26T06:08:36.668Z,60.12
2023-04-26T06:09:36.653Z,53.92
2023-04-26T06:10:35.628Z,61.85
2023-04-26T06:11:35.636Z,63.61
2023-04-26T06:12:36.636Z,60.97
2023-04-26T06:13:35.621Z,63.68
2023-04-26T06:14:36.613Z,60.14
2023-04-26T06:15:35.602Z,45.81
2023-04-26T06:16:36.667Z,45.62
2023-04-26T06:17:36.673Z,47.03
2023-04-26T06:18:36.622Z,49.01
2023-04-26T06:19:36.591Z,55.93
2023-04-26T06:20:36.636Z,57.36
2023-04-26T06:21:35.772Z,54.32
2023-04-26T06:22:35.747Z,52.57
2023-04-26T06:23:35.808Z,50.83
2023-04-26T06:24:35.834Z,52.58
2023-04-26T06:25:36.912Z,47.76
2023-04-26T06:26:36.975Z,46.73
2023-04-26T06:27:35.983Z,49.62
2023-04-26T06:28:37.013Z,46.43
2023-04-26T06:29:37.059Z,44.42
2023-04-26T06:30:37.153Z,44.38
2023-04-26T06:31:36.234Z,44.85
2023-04-26T06:32:37.202Z,43.23
2023-04-26T06:33:37.230Z,43.48
2023-04-26T06:34:37.245Z,42.86
2023-04-26T06:35:37.268Z,41.15
2023-04-26T06:36:37.337Z,41.62
2023-04-26T06:37:37.379Z,44.75
2023-04-26T06:38:36.365Z,39.30
2023-04-26T06:39:37.400Z,38.77
2023-04-26T06:40:37.495Z,40.23
2023-04-26T06:41:37.470Z,38.40
2023-04-26T06:42:37.507Z,37.64
2023-04-26T06:43:37.577Z,35.71
2023-04-26T06:44:37.581Z,37.15
2023-04-26T06:45:36.598Z,32.25
2023-04-26T06:46:37.694Z,34.28
2023-04-26T06:47:37.710Z,36.80
2023-04-26T06:48:37.745Z,36.27
2023-04-26T06:49:37.749Z,32.50
2023-04-26T06:50:37.798Z,32.20
2023-04-26T06:51:37.871Z,25.58
2023-04-26T06:52:37.979Z,26.68
2023-04-26T06:53:38.021Z,35.96
2023-04-26T06:54:45.996Z,29.70
2023-04-26T06:55:37.937Z,29.83
2023-04-26T06:56:37.931Z,28.60
2023-04-26T06:57:36.958Z,25.71
2023-04-26T06:58:36.965Z,23.89
2023-04-26T06:59:37.919Z,19.35
2023-04-26T07:00:38.020Z,27.09
2023-04-26T07:01:37.932Z,25.74
2023-04-26T07:02:38.213Z,26.61
2023-04-26T07:03:37.980Z,27.06
2023-04-26T07:04:37.206Z,27.82
2023-04-26T07:05:37.886Z,31.71
2023-04-26T07:06:36.881Z,26.71
2023-04-26T07:07:36.880Z,25.61
2023-04-26T07:08:37.876Z,28.33
2023-04-26T07:09:37.922Z,27.03
2023-04-26T07:10:38.137Z,30.28
2023-04-26T07:11:36.915Z,28.41
2023-04-26T07:12:37.943Z,25.61
2023-04-26T07:13:38.455Z,27.27
2023-04-26T07:14:39.438Z,28.73
2023-04-26T07:15:38.454Z,29.58
2023-04-26T07:16:37.312Z,26.08
2023-04-26T07:17:38.214Z,28.42
2023-04-26T07:18:38.221Z,28.77
2023-04-26T07:19:37.218Z,29.15
2023-04-26T07:20:37.240Z,28.72
2023-04-26T07:21:37.237Z,34.26
2023-04-26T07:22:38.273Z,30.57
2023-04-26T07:23:38.286Z,30.18
2023-04-26T07:24:38.290Z,30.65
2023-04-26T07:25:38.362Z,32.83
2023-04-26T07:26:37.340Z,28.58
2023-04-26T07:27:38.345Z,30.27
2023-04-26T07:28:38.382Z,26.12
2023-04-26T07:29:38.545Z,30.54
2023-04-26T07:30:37.409Z,26.39
2023-04-26T07:31:37.422Z,24.75
2023-04-26T07:32:37.490Z,35.71
2023-04-26T07:33:38.618Z,30.72
2023-04-26T07:34:37.462Z,35.13
2023-04-26T07:35:38.495Z,32.67
2023-04-26T07:36:38.520Z,29.17
2023-04-26T07:37:38.528Z,29.09
2023-04-26T07:38:37.557Z,28.61
2023-04-26T07:39:38.565Z,28.44
2023-04-26T07:40:38.598Z,25.90
2023-04-26T07:41:38.762Z,29.34
2023-04-26T07:42:37.625Z,29.60
2023-04-26T07:43:38.683Z,28.70
2023-04-26T07:44:38.710Z,29.98
2023-04-26T07:45:37.746Z,28.25
2023-04-26T07:46:38.736Z,28.46
2023-04-26T07:47:38.881Z,25.00
2023-04-26T07:48:37.988Z,25.00
2023-04-26T07:49:38.828Z,18.38
2023-04-26T07:50:38.866Z,39.40
2023-04-26T07:51:38.896Z,47.75
2023-04-26T07:52:38.955Z,60.48
2023-04-26T07:53:39.005Z,67.39
2023-04-26T07:54:39.026Z,0.00
2023-04-26T07:55:38.176Z,0.00
2023-04-26T07:56:39.074Z,0.00
2023-04-26T07:57:39.092Z,1.01
2023-04-26T07:58:39.260Z,25.00
2023-04-26T07:59:39.092Z,58.60
2023-04-26T08:00:39.172Z,102.30
2023-04-26T08:01:39.183Z,148.86
2023-04-26T08:03:38.435Z,171.16
2023-04-26T08:04:39.355Z,174.51
2023-04-26T08:05:39.581Z,184.37
2023-04-26T08:06:39.156Z,199.55
2023-04-26T08:07:38.192Z,231.85
2023-04-26T08:08:38.134Z,244.48
2023-04-26T08:09:39.119Z,251.34
2023-04-26T08:10:38.116Z,250.00
2023-04-26T08:11:39.162Z,250.00
2023-04-26T08:12:39.166Z,248.67
2023-04-26T08:13:39.249Z,249.09
2023-04-26T08:14:39.231Z,250.00
2023-04-26T08:15:39.270Z,250.53
2023-04-26T08:16:38.417Z,250.00
2023-04-26T08:17:38.382Z,250.00
2023-04-26T08:18:39.404Z,250.00
2023-04-26T08:19:39.381Z,250.00
2023-04-26T08:20:39.402Z,249.02
2023-04-26T08:21:38.432Z,247.65
2023-04-26T08:22:39.429Z,248.35
2023-04-26T08:23:39.463Z,250.94
2023-04-26T08:24:39.478Z,249.66
2023-04-26T08:25:39.500Z,248.50
2023-04-26T08:26:39.497Z,249.50
2023-04-26T08:27:39.500Z,247.94
2023-04-26T08:28:38.547Z,249.62
2023-04-26T08:29:38.671Z,250.00
2023-04-26T08:30:39.508Z,249.88
2023-04-26T08:31:38.742Z,249.41
2023-04-26T08:32:38.615Z,248.11
2023-04-26T08:33:38.567Z,244.83
2023-04-26T08:34:38.500Z,247.38
2023-04-26T08:35:39.501Z,246.41
2023-04-26T08:36:38.492Z,248.41
2023-04-26T08:37:39.503Z,250.49
2023-04-26T08:38:39.499Z,248.96
2023-04-26T08:39:38.498Z,249.01
2023-04-26T08:40:39.609Z,248.84
2023-04-26T08:41:38.522Z,246.08
2023-04-26T08:42:39.535Z,238.46
2023-04-26T08:43:39.987Z,231.29
2023-04-26T08:44:39.639Z,215.78
2023-04-26T08:45:39.719Z,196.81
2023-04-26T08:46:39.767Z,191.70
2023-04-26T08:47:39.685Z,180.31
2023-04-26T08:48:38.682Z,185.26
2023-04-26T08:49:39.957Z,179.71
2023-04-26T08:50:38.728Z,176.84
2023-04-26T08:51:39.729Z,159.00
2023-04-26T08:52:38.762Z,174.99
2023-04-26T08:53:39.768Z,158.97
2023-04-26T08:54:39.846Z,148.13
2023-04-26T08:55:38.826Z,141.73
2023-04-26T08:56:39.895Z,144.09
2023-04-26T08:57:38.929Z,147.89
2023-04-26T08:58:40.078Z,136.93
2023-04-26T08:59:39.992Z,157.62
2023-04-26T09:00:39.062Z,163.42
2023-04-26T09:01:40.148Z,181.85
2023-04-26T09:02:40.334Z,187.66
2023-04-26T09:03:39.223Z,194.23
2023-04-26T09:04:40.355Z,201.76
2023-04-26T09:05:40.230Z,203.85
2023-04-26T09:06:40.278Z,209.13
2023-04-26T09:07:40.318Z,214.26
2023-04-26T09:08:40.510Z,220.17
2023-04-26T09:09:39.407Z,225.21
2023-04-26T09:10:40.397Z,228.94
2023-04-26T09:11:39.718Z,233.77
2023-04-26T09:12:39.436Z,238.40
2023-04-26T09:13:39.664Z,242.37
2023-04-26T09:14:40.396Z,245.32
2023-04-26T09:15:40.485Z,247.08
2023-04-26T09:16:39.475Z,249.52
2023-04-26T09:17:39.543Z,249.66
2023-04-26T09:18:40.536Z,247.72
2023-04-26T09:19:40.520Z,248.30
2023-04-26T09:20:40.510Z,248.91
2023-04-26T09:21:40.526Z,250.00
2023-04-26T09:22:40.514Z,248.90
2023-04-26T09:23:40.534Z,249.90
2023-04-26T09:24:39.527Z,250.00
2023-04-26T09:25:39.537Z,248.55
2023-04-26T09:26:39.567Z,250.29
2023-04-26T09:27:40.587Z,249.91
2023-04-26T09:28:39.569Z,249.85
2023-04-26T09:29:40.611Z,250.00
2023-04-26T09:30:40.671Z,249.32
2023-04-26T09:31:40.732Z,248.87
2023-04-26T09:32:40.771Z,250.00
2023-04-26T09:33:40.831Z,248.97
2023-04-26T09:34:40.801Z,249.58
2023-04-26T09:35:40.826Z,249.94
2023-04-26T09:36:39.817Z,248.79
2023-04-26T09:37:54.400Z,247.59
2023-04-26T09:38:40.854Z,247.82
2023-04-26T09:39:40.869Z,248.68
2023-04-26T09:40:40.813Z,250.75
2023-04-26T09:41:40.832Z,252.43
2023-04-26T09:42:40.790Z,257.94
2023-04-26T09:43:40.776Z,250.00
2023-04-26T09:44:39.770Z,250.22
2023-04-26T09:45:40.764Z,248.57
2023-04-26T09:46:40.797Z,249.16
2023-04-26T09:47:40.883Z,248.65
2023-04-26T09:48:40.849Z,248.66
2023-04-26T09:49:41.031Z,250.00
2023-04-26T09:50:39.741Z,242.86
2023-04-26T09:51:39.730Z,244.18
2023-04-26T09:52:39.720Z,243.55
2023-04-26T09:53:46.539Z,240.32
2023-04-26T09:54:41.571Z,240.47
2023-04-26T09:55:40.718Z,240.61
2023-04-26T09:56:40.695Z,240.08
2023-04-26T09:57:40.689Z,238.74
2023-04-26T09:58:40.724Z,238.56
2023-04-26T09:59:39.672Z,235.49
2023-04-26T10:00:40.696Z,236.13
2023-04-26T10:01:40.686Z,234.90
2023-04-26T10:02:39.719Z,233.91
2023-04-26T10:03:39.927Z,232.95
2023-04-26T10:04:40.668Z,231.14
2023-04-26T10:05:40.665Z,230.75
2023-04-26T10:06:39.707Z,231.10
2023-04-26T10:07:40.750Z,229.28
2023-04-26T10:08:40.820Z,227.92
2023-04-26T10:09:39.890Z,226.99
2023-04-26T10:10:39.956Z,226.73
2023-04-26T10:11:41.014Z,226.42
2023-04-26T10:12:40.037Z,226.66
2023-04-26T10:13:40.116Z,223.42
2023-04-26T10:14:40.182Z,221.67
2023-04-26T10:15:41.273Z,219.72
2023-04-26T10:16:41.463Z,218.72
2023-04-26T10:17:41.367Z,216.19
2023-04-26T10:18:40.399Z,216.24
2023-04-26T10:19:41.479Z,213.48
2023-04-26T10:20:41.528Z,211.90
2023-04-26T10:21:41.588Z,209.72
2023-04-26T10:22:41.633Z,206.11
2023-04-26T10:23:40.692Z,205.47
2023-04-26T10:24:41.739Z,201.55
2023-04-26T10:25:41.756Z,199.43
2023-04-26T10:26:41.791Z,196.10
2023-04-26T10:27:41.949Z,195.57
2023-04-26T10:28:41.888Z,194.92
2023-04-26T10:29:40.954Z,193.14
2023-04-26T10:30:42.005Z,190.09
2023-04-26T10:31:42.127Z,192.15
2023-04-26T10:32:42.156Z,189.93
2023-04-26T10:33:42.178Z,189.52
2023-04-26T10:34:42.258Z,189.19
2023-04-26T10:35:42.299Z,188.05
2023-04-26T10:36:42.357Z,188.42
2023-04-26T10:37:42.437Z,186.98
2023-04-26T10:38:42.481Z,187.80
2023-04-26T10:39:42.543Z,184.67
2023-04-26T10:40:42.706Z,185.72
2023-04-26T10:41:42.612Z,166.76
2023-04-26T10:42:42.630Z,166.98
2023-04-26T10:43:42.676Z,160.30
2023-04-26T10:44:41.698Z,134.58
2023-04-26T10:45:41.752Z,134.53
2023-04-26T10:46:43.024Z,123.32
2023-04-26T10:47:41.825Z,126.05
2023-04-26T10:48:41.840Z,145.26
2023-04-26T10:49:41.922Z,153.20
2023-04-26T10:50:41.945Z,159.86
2023-04-26T10:51:43.226Z,163.83
2023-04-26T10:52:41.996Z,166.93
2023-04-26T10:53:43.002Z,169.29
2023-04-26T10:54:42.988Z,169.84
2023-04-26T10:55:43.248Z,173.52
2023-04-26T10:56:43.020Z,172.88
2023-04-26T10:57:42.017Z,175.29
2023-04-26T10:58:41.980Z,176.89
2023-04-26T10:59:54.008Z,178.63
2023-04-26T11:00:42.987Z,178.79
2023-04-26T11:01:42.023Z,178.94
2023-04-26T11:02:42.019Z,179.57
2023-04-26T11:03:42.264Z,180.63
2023-04-26T11:04:42.023Z,182.20
2023-04-26T11:05:41.939Z,183.36
2023-04-26T11:06:42.943Z,182.84
2023-04-26T11:07:42.551Z,182.95
2023-04-26T11:08:42.919Z,182.80
2023-04-26T11:09:43.044Z,183.34
2023-04-26T11:10:43.013Z,181.08
2023-04-26T11:11:43.084Z,181.61
2023-04-26T11:12:43.153Z,183.45
2023-04-26T11:13:43.193Z,183.16
2023-04-26T11:14:43.254Z,181.77
2023-04-26T11:15:43.335Z,183.32
2023-04-26T11:16:44.218Z,184.20
2023-04-26T11:17:43.438Z,183.69
2023-04-26T11:18:43.435Z,184.84
2023-04-26T11:19:43.524Z,185.55
2023-04-26T11:20:43.526Z,185.77
2023-04-26T11:21:43.587Z,184.11
2023-04-26T11:22:43.622Z,183.71
2023-04-26T11:23:42.687Z,184.07
2023-04-26T11:24:43.691Z,183.73
2023-04-26T11:25:42.812Z,184.69
2023-04-26T11:26:43.746Z,185.00
2023-04-26T11:27:43.801Z,183.78
2023-04-26T11:28:43.834Z,184.70
2023-04-26T11:29:43.921Z,185.59
2023-04-26T11:30:43.532Z,183.97
2023-04-26T11:31:43.989Z,181.86
2023-04-26T11:32:44.008Z,181.69
2023-04-26T11:33:44.026Z,183.16
2023-04-26T11:34:44.066Z,180.15
2023-04-26T11:35:44.090Z,179.73
2023-04-26T11:36:44.132Z,187.53
2023-04-26T11:37:43.182Z,186.42
2023-04-26T11:38:43.224Z,190.15
2023-04-26T11:39:43.265Z,193.07
2023-04-26T11:40:44.323Z,193.15
2023-04-26T11:41:43.412Z,192.19
2023-04-26T11:42:44.434Z,192.55
2023-04-26T11:43:43.551Z,192.58
2023-04-26T11:44:45.697Z,193.07
2023-04-26T11:45:44.592Z,193.05
2023-04-26T11:46:44.672Z,193.15
2023-04-26T11:47:43.686Z,191.50
2023-04-26T11:48:43.644Z,191.77
2023-04-26T11:49:43.635Z,190.74
2023-04-26T11:50:44.637Z,193.17
2023-04-26T11:51:44.683Z,192.34
2023-04-26T11:52:44.668Z,192.44
2023-04-26T11:53:43.669Z,192.15
2023-04-26T11:54:44.689Z,191.64
2023-04-26T11:55:43.700Z,191.73
2023-04-26T11:56:44.710Z,191.66
2023-04-26T11:57:44.948Z,191.50
2023-04-26T11:58:44.756Z,191.45
2023-04-26T11:59:44.811Z,192.07
2023-04-26T12:00:44.824Z,191.51
2023-04-26T12:01:43.899Z,192.87
2023-04-26T12:02:44.947Z,191.36
2023-04-26T12:03:44.973Z,191.01
2023-04-26T12:04:44.295Z,192.17
2023-04-26T12:05:43.962Z,192.38
2023-04-26T12:06:43.998Z,191.29
2023-04-26T12:07:45.037Z,191.51
2023-04-26T12:08:45.074Z,190.54
2023-04-26T12:09:45.142Z,190.18
2023-04-26T12:10:45.177Z,191.37
2023-04-26T12:11:45.249Z,191.03
2023-04-26T12:12:45.307Z,190.69
2023-04-26T12:13:44.406Z,189.93
2023-04-26T12:14:45.406Z,189.46
2023-04-26T12:15:44.472Z,190.00
2023-04-26T12:16:45.540Z,188.10
2023-04-26T12:17:45.644Z,186.82
2023-04-26T12:18:45.632Z,189.30
2023-04-26T12:19:44.699Z,188.03
2023-04-26T12:20:44.753Z,189.07
2023-04-26T12:21:45.830Z,187.25
2023-04-26T12:22:45.871Z,186.99
2023-04-26T12:23:44.952Z,187.14
2023-04-26T12:24:45.992Z,186.63
2023-04-26T12:25:45.064Z,186.51
2023-04-26T12:26:46.147Z,186.12
2023-04-26T12:27:46.175Z,184.21
2023-04-26T12:28:45.233Z,184.15
2023-04-26T12:29:45.609Z,183.94
2023-04-26T12:30:45.393Z,183.25
2023-04-26T12:31:45.513Z,182.67
2023-04-26T12:32:46.568Z,162.43
2023-04-26T12:33:46.511Z,141.71
2023-04-26T12:34:46.527Z,108.60